Time;durP1;ratioP1;P1;durP2;ratioP2;P2;SDS_P1;SDS_P2;PMS_P1;PMS_P2;Temp;Humidity;BMP_temperature;BMP_pressure;BME280_temperature;BME280_humidity;BME280_pressure;Samples;Min_cycle;Max_cycle;Signal;HPM_P1;HPM_P2
2023/07/03 00:00:17;;;;;;;11.45;3.80;;;;;;;19.67;43.91;100957.53;5043644;28;20057;-61
2023/07/03 00:02:51;;;;;;;16.77;4.35;;;;;;;19.66;43.63;100960.53;5039598;28;20128;-61
2023/07/03 00:05:19;;;;;;;11.68;3.60;;;;;;;19.66;43.99;100963.25;5041573;28;20073;-61
2023/07/03 00:07:47;;;;;;;8.82;3.80;;;;;;;19.65;43.81;100956.19;5042476;28;20195;-61
2023/07/03 00:10:16;;;;;;;7.78;3.10;;;;;;;19.63;44.00;100956.47;5043737;28;20352;-61
2023/07/03 00:12:45;;;;;;;13.07;4.15;;;;;;;19.63;43.90;100958.38;5044925;28;20068;-61
2023/07/03 00:15:14;;;;;;;11.32;3.70;;;;;;;19.62;44.06;100954.00;5042436;28;20049;-61
2023/07/03 00:17:44;;;;;;;13.60;4.05;;;;;;;19.61;44.11;100957.84;5045091;28;20084;-61
2023/07/03 00:20:14;;;;;;;10.13;3.47;;;;;;;19.60;44.11;100957.03;5043225;28;20330;-62
2023/07/03 00:22:42;;;;;;;14.07;3.97;;;;;;;19.59;44.29;100955.38;5041188;28;20475;-61
2023/07/03 00:25:10;;;;;;;13.10;3.75;;;;;;;19.59;44.03;100949.13;5043546;28;20054;-61
2023/07/03 00:27:38;;;;;;;10.40;3.75;;;;;;;19.58;44.12;100958.38;5041102;28;20103;-62
2023/07/03 00:30:09;;;;;;;10.18;3.15;;;;;;;19.58;44.31;100951.03;5040861;28;20045;-61
2023/07/03 00:32:36;;;;;;;11.15;4.25;;;;;;;19.57;44.28;100951.31;5040976;28;20049;-61
2023/07/03 00:35:06;;;;;;;11.48;3.33;;;;;;;19.56;44.29;100955.94;5043689;28;20091;-61
2023/07/03 00:37:34;;;;;;;10.18;4.13;;;;;;;19.55;44.35;100954.31;5044931;28;20056;-61
2023/07/03 00:40:03;;;;;;;12.45;3.70;;;;;;;19.55;44.45;100942.59;5043874;28;20046;-61
2023/07/03 00:42:31;;;;;;;13.10;3.28;;;;;;;19.54;44.56;100946.41;5042573;28;20045;-61
2023/07/03 00:44:59;;;;;;;10.50;3.45;;;;;;;19.53;44.52;100944.78;5036944;28;20052;-61
2023/07/03 00:47:28;;;;;;;7.93;2.88;;;;;;;19.53;44.65;100944.78;5041332;28;20060;-61
2023/07/03 00:49:56;;;;;;;11.93;4.00;;;;;;;19.52;44.58;100945.88;5044850;28;20052;-62
2023/07/03 00:52:24;;;;;;;10.90;3.83;;;;;;;19.50;44.69;100940.66;5043820;28;20045;-62
2023/07/03 00:54:53;;;;;;;11.85;4.00;;;;;;;19.50;44.67;100952.38;5044236;28;20144;-61
2023/07/03 00:57:23;;;;;;;11.55;3.75;;;;;;;19.47;44.72;100944.78;5041545;28;20438;-62
2023/07/03 00:59:51;;;;;;;13.77;4.18;;;;;;;19.47;44.74;100942.03;5043096;28;20231;-62
2023/07/03 01:02:25;;;;;;;12.85;3.80;;;;;;;19.46;44.83;100940.41;5041520;28;20057;-62
2023/07/03 01:05:00;;;;;;;10.02;3.50;;;;;;;19.44;45.10;100937.16;5038059;28;20064;-61
2023/07/03 01:07:31;;;;;;;13.65;4.38;;;;;;;19.43;45.03;100937.44;5041131;28;20495;-61
2023/07/03 01:10:05;;;;;;;12.10;3.78;;;;;;;19.42;45.16;100939.34;5041279;28;20051;-62
2023/07/03 01:12:38;;;;;;;14.18;3.88;;;;;;;19.41;45.19;100932.25;5041826;28;20049;-62
2023/07/03 01:15:09;;;;;;;15.52;3.90;;;;;;;19.39;45.05;100934.44;5041663;28;20130;-61
2023/07/03 01:17:40;;;;;;;15.93;3.83;;;;;;;19.39;45.14;100939.06;5036687;28;20045;-62
2023/07/03 01:20:16;;;;;;;16.25;4.05;;;;;;;19.36;45.13;100928.72;5041872;28;20072;-61
2023/07/03 01:22:51;;;;;;;13.48;3.40;;;;;;;19.36;45.38;100937.72;5043023;28;20079;-61
2023/07/03 01:25:24;;;;;;;15.80;4.07;;;;;;;19.36;45.39;100931.47;5042523;28;20053;-61
2023/07/03 01:27:53;;;;;;;15.15;5.32;;;;;;;19.34;45.37;100934.47;5044464;28;20049;-61
2023/07/03 01:30:22;;;;;;;14.35;4.28;;;;;;;19.32;45.47;100944.81;5043680;28;20180;-61
2023/07/03 01:32:53;;;;;;;13.23;4.50;;;;;;;19.32;45.63;100944.00;5040363;28;20053;-61
2023/07/03 01:35:23;;;;;;;16.60;4.03;;;;;;;19.31;45.50;100934.19;5042969;28;20446;-61
2023/07/03 01:37:54;;;;;;;13.95;4.15;;;;;;;19.30;45.45;100935.28;5044340;28;20053;-62
2023/07/03 01:40:26;;;;;;;11.40;3.88;;;;;;;19.29;45.73;100930.94;5042547;28;20101;-62
2023/07/03 01:42:56;;;;;;;15.07;4.32;;;;;;;19.28;45.76;100932.84;5044000;28;20071;-62
2023/07/03 01:45:23;;;;;;;13.70;4.25;;;;;;;19.27;45.81;100933.13;5039604;28;20045;-61
2023/07/03 01:47:51;;;;;;;16.23;4.55;;;;;;;19.25;45.93;100932.59;5043678;28;20049;-62
2023/07/03 01:50:23;;;;;;;13.63;4.65;;;;;;;19.24;45.91;100942.66;5042064;28;20045;-61
2023/07/03 01:52:55;;;;;;;15.65;4.43;;;;;;;19.22;46.06;100936.69;5043189;28;20391;-61
2023/07/03 01:55:31;;;;;;;14.25;4.32;;;;;;;19.22;46.16;100935.88;5041455;28;20103;-61
2023/07/03 01:58:03;;;;;;;;;;;;;;;19.21;46.12;100932.31;5042862;28;20049;-61
2023/07/03 02:00:35;;;;;;;14.05;4.32;;;;;;;19.21;46.19;100926.88;5041293;28;19947;-61
2023/07/03 02:03:11;;;;;;;14.55;5.20;;;;;;;19.19;46.34;100924.41;5039185;28;20060;-62
2023/07/03 02:05:40;;;;;;;14.40;4.00;;;;;;;19.18;46.30;100928.25;5039230;28;20173;-62
2023/07/03 02:08:10;;;;;;;14.45;3.97;;;;;;;19.18;46.31;100927.44;5041534;28;20052;-62
2023/07/03 02:10:40;;;;;;;13.77;4.28;;;;;;;19.15;46.51;100925.25;5040555;28;20112;-61
2023/07/03 02:13:08;;;;;;;13.90;4.90;;;;;;;19.17;46.97;100923.06;5043579;28;20045;-62
2023/07/03 02:15:36;;;;;;;13.75;4.10;;;;;;;19.16;46.58;100924.16;5039214;28;20072;-62
2023/07/03 02:18:04;;;;;;;18.15;4.97;;;;;;;19.14;47.11;100912.72;5042259;28;20057;-61
2023/07/03 02:20:32;;;;;;;17.58;3.90;;;;;;;19.13;47.10;100916.53;5040592;28;20060;-61
2023/07/03 02:23:00;;;;;;;14.18;4.13;;;;;;;19.12;46.92;100914.91;5043400;28;20049;-61
2023/07/03 02:25:28;;;;;;;16.40;3.92;;;;;;;19.12;47.07;100923.91;5042188;28;20049;-62
2023/07/03 02:27:57;;;;;;;21.13;5.15;;;;;;;19.11;47.11;100913.28;5040003;28;20072;-62
2023/07/03 02:30:25;;;;;;;22.30;5.85;;;;;;;19.11;47.12;100916.00;5040737;28;20054;-62
2023/07/03 02:32:53;;;;;;;17.63;4.57;;;;;;;19.11;47.26;100916.00;5035814;28;20050;-62
2023/07/03 02:35:21;;;;;;;15.63;4.30;;;;;;;19.10;47.42;100908.91;5036988;28;20060;-61
2023/07/03 02:37:48;;;;;;;15.32;4.55;;;;;;;19.08;47.33;100905.66;5045206;28;20111;-61
2023/07/03 02:40:16;;;;;;;15.07;4.60;;;;;;;19.07;47.31;100912.19;5045873;28;20052;-61
2023/07/03 02:42:44;;;;;;;15.40;4.63;;;;;;;19.07;47.36;100915.75;5046871;28;20057;-61
2023/07/03 02:45:13;;;;;;;17.27;5.72;;;;;;;19.06;47.33;100916.06;5045438;28;20056;-61
2023/07/03 02:47:41;;;;;;;21.25;5.63;;;;;;;19.04;47.46;100913.59;5037650;28;20049;-60
2023/07/03 02:50:09;;;;;;;17.63;4.95;;;;;;;19.03;47.44;100911.97;5046131;28;20075;-61
2023/07/03 02:52:37;;;;;;;15.93;4.07;;;;;;;19.02;47.87;100902.16;5047087;28;20072;-62
2023/07/03 02:55:06;;;;;;;13.48;4.22;;;;;;;19.01;47.53;100905.97;5045835;28;20054;-62
2023/07/03 02:57:34;;;;;;;19.20;4.28;;;;;;;18.99;47.84;100897.28;5046997;28;20133;-61
2023/07/03 03:00:02;;;;;;;19.90;5.70;;;;;;;18.99;47.73;100902.72;5046575;28;20057;-60
2023/07/03 03:02:31;;;;;;;16.92;5.07;;;;;;;18.98;48.35;100903.00;5046880;28;20045;-61
2023/07/03 03:04:59;;;;;;;17.05;5.15;;;;;;;18.96;48.09;100897.81;5045623;28;20053;-61
2023/07/03 03:07:28;;;;;;;19.10;3.78;;;;;;;18.96;48.24;100900.53;5046570;28;20103;-61
2023/07/03 03:09:55;;;;;;;20.75;5.97;;;;;;;18.94;48.35;100902.72;5046156;28;20053;-61
2023/07/03 03:12:23;;;;;;;13.88;4.65;;;;;;;18.94;48.31;100901.91;5046105;28;20394;-61
2023/07/03 03:14:51;;;;;;;19.15;4.55;;;;;;;18.93;48.31;100895.66;5045176;28;20045;-61
2023/07/03 03:17:19;;;;;;;19.15;5.50;;;;;;;18.93;48.50;100894.84;5040705;28;20049;-61
2023/07/03 03:19:48;;;;;;;18.77;4.70;;;;;;;18.90;48.60;100900.84;5044659;28;20066;-61
2023/07/03 03:22:16;;;;;;;17.98;4.18;;;;;;;18.89;48.69;100897.28;5046434;28;20145;-61
2023/07/03 03:24:44;;;;;;;24.73;5.25;;;;;;;18.88;48.69;100897.56;5046195;28;20076;-61
2023/07/03 03:27:12;;;;;;;13.38;4.20;;;;;;;18.87;48.50;100890.50;5044514;28;20111;-61
2023/07/03 03:29:41;;;;;;;18.35;6.55;;;;;;;18.86;48.76;100897.84;5044977;28;20488;-61
2023/07/03 03:32:09;;;;;;;18.30;5.13;;;;;;;18.86;48.89;100897.84;5041268;28;20059;-61
2023/07/03 03:34:37;;;;;;;16.05;5.35;;;;;;;18.85;48.84;100902.47;5041804;28;20053;-61
2023/07/03 03:37:06;;;;;;;18.63;5.03;;;;;;;18.84;48.67;100898.13;5044438;28;20076;-61
2023/07/03 03:39:34;;;;;;;16.60;4.55;;;;;;;18.84;49.20;100894.59;5041977;28;20045;-61
2023/07/03 03:42:02;;;;;;;19.10;5.28;;;;;;;18.84;49.24;100894.59;5044223;28;20057;-60
2023/07/03 03:44:30;;;;;;;18.83;4.72;;;;;;;18.83;49.06;100892.94;5037311;28;20053;-62
2023/07/03 03:46:57;;;;;;;16.13;4.90;;;;;;;18.82;49.29;100891.31;5044105;28;20050;-61
2023/07/03 03:49:25;;;;;;;19.98;5.22;;;;;;;18.83;49.31;100895.69;5044544;28;20049;-62
2023/07/03 03:51:53;;;;;;;16.70;4.88;;;;;;;18.80;49.26;100893.50;5045245;28;20049;-61
2023/07/03 03:54:22;;;;;;;19.52;5.60;;;;;;;18.80;49.51;100891.59;5045909;28;20187;-61
2023/07/03 03:56:50;;;;;;;19.42;4.97;;;;;;;18.80;49.59;100893.50;5042970;28;20183;-61
2023/07/03 03:59:19;;;;;;;17.38;4.55;;;;;;;18.78;49.71;100887.50;5045648;28;20080;-61
2023/07/03 04:01:48;;;;;;;16.55;4.72;;;;;;;18.79;49.59;100900.84;5039696;28;20050;-60
2023/07/03 04:04:16;;;;;;;19.75;4.70;;;;;;;18.78;49.77;100906.56;5045098;28;20053;-61
2023/07/03 04:06:44;;;;;;;17.65;5.88;;;;;;;18.77;49.87;100902.22;5041640;28;20084;-61
2023/07/03 04:09:12;;;;;;;18.80;5.22;;;;;;;18.76;49.90;100906.03;5041961;28;20079;-61
2023/07/03 04:11:41;;;;;;;20.20;5.13;;;;;;;18.74;49.81;100906.31;5044774;28;20049;-61
2023/07/03 04:14:09;;;;;;;20.05;5.43;;;;;;;18.74;49.98;100910.94;5042627;28;20107;-61
2023/07/03 04:16:37;;;;;;;21.92;6.32;;;;;;;18.71;50.33;100898.69;5042252;28;20042;-61
2023/07/03 04:19:05;;;;;;;18.85;5.35;;;;;;;18.71;50.64;100903.31;5040369;28;20049;-62
2023/07/03 04:21:33;;;;;;;19.35;5.35;;;;;;;18.69;50.54;100908.22;5044721;28;20057;-61
2023/07/03 04:24:01;;;;;;;21.35;5.78;;;;;;;18.69;50.25;100911.75;5043498;28;20045;-62
2023/07/03 04:26:28;;;;;;;18.80;5.25;;;;;;;18.69;50.67;100900.88;5044545;28;20045;-62
2023/07/03 04:28:58;;;;;;;16.15;5.40;;;;;;;18.67;50.60;100902.22;5044187;28;20111;-61
2023/07/03 04:31:25;;;;;;;15.90;4.38;;;;;;;18.68;50.61;100901.16;5043594;28;20142;-61
2023/07/03 04:33:53;;;;;;;14.52;4.35;;;;;;;18.67;50.37;100900.31;5041322;28;20080;-61
2023/07/03 04:36:21;;;;;;;13.50;4.05;;;;;;;18.67;50.52;100899.50;5043579;28;20045;-61
2023/07/03 04:38:49;;;;;;;18.40;4.60;;;;;;;18.67;50.51;100905.78;5042586;28;20061;-60
2023/07/03 04:41:18;;;;;;;21.48;5.45;;;;;;;18.66;50.61;100898.69;5042981;28;20552;-61
2023/07/03 04:43:48;;;;;;;18.05;4.75;;;;;;;18.66;50.50;100898.69;5043905;28;20075;-60
2023/07/03 04:46:18;;;;;;;20.55;5.63;;;;;;;18.66;50.87;100897.88;5040756;28;20068;-61
2023/07/03 04:48:46;;;;;;;15.82;4.68;;;;;;;18.65;50.85;100912.59;5041203;28;20055;-61
2023/07/03 04:51:14;;;;;;;20.60;5.57;;;;;;;18.65;50.82;100909.84;5041244;28;20064;-61
2023/07/03 04:53:42;;;;;;;17.65;4.82;;;;;;;18.64;51.09;100908.22;5043380;28;20065;-63
2023/07/03 04:56:11;;;;;;;21.13;5.57;;;;;;;18.62;51.31;100897.59;5043040;28;20076;-60
2023/07/03 04:58:40;;;;;;;17.58;5.50;;;;;;;18.62;51.22;100913.13;5043857;28;20115;-61
2023/07/03 05:01:11;;;;;;;20.20;5.03;;;;;;;18.61;51.33;100914.22;5039012;28;20057;-60
2023/07/03 05:03:41;;;;;;;18.15;5.22;;;;;;;18.61;50.83;100912.31;5042928;28;20069;-61
2023/07/03 05:06:09;;;;;;;17.05;5.90;;;;;;;18.62;51.33;100919.38;5035030;28;20060;-60
2023/07/03 05:08:37;;;;;;;15.95;4.75;;;;;;;18.60;51.30;100924.25;5043988;28;20049;-60
2023/07/03 05:11:05;;;;;;;18.50;5.13;;;;;;;18.61;51.18;100925.09;5042261;28;20107;-61
2023/07/03 05:13:33;;;;;;;16.73;4.97;;;;;;;18.59;51.38;100925.34;5038680;28;20048;-61
2023/07/03 05:16:00;;;;;;;20.25;5.75;;;;;;;18.69;50.99;100919.09;5037550;28;20042;-61
2023/07/03 05:18:28;;;;;;;20.73;5.07;;;;;;;18.65;51.47;100923.47;5040135;28;20660;-61
2023/07/03 05:20:58;;;;;;;19.42;6.18;;;;;;;18.61;51.80;100928.66;5043130;28;20046;-61
2023/07/03 05:23:25;;;;;;;14.38;5.93;;;;;;;18.60;51.66;100926.97;5043354;28;20076;-61
2023/07/03 05:25:53;;;;;;;16.48;5.53;;;;;;;18.60;51.85;100928.88;5042031;28;20407;-61
2023/07/03 05:28:21;;;;;;;19.02;4.60;;;;;;;18.59;51.83;100925.34;5042140;28;20061;-61
2023/07/03 05:30:54;;;;;;;17.02;4.95;;;;;;;18.58;52.44;100941.94;5042555;28;20179;-62
2023/07/03 05:33:22;;;;;;;19.63;5.40;;;;;;;18.58;52.43;100940.06;5043172;28;20479;-63
2023/07/03 05:35:49;;;;;;;23.88;6.10;;;;;;;18.66;52.61;100938.72;5042853;28;20056;-65
2023/07/03 05:38:22;;;;;;;19.90;5.88;;;;;;;18.62;52.30;100946.63;5042918;28;20077;-65
2023/07/03 05:40:50;;;;;;;24.95;5.78;;;;;;;18.61;52.42;100950.41;5043767;28;20103;-65
2023/07/03 05:43:18;;;;;;;22.77;5.10;;;;;;;18.69;52.20;100943.63;5043844;28;20049;-65
2023/07/03 05:45:47;;;;;;;17.02;5.63;;;;;;;18.64;52.05;100944.44;5044358;28;20049;-64
2023/07/03 05:48:16;;;;;;;15.57;4.78;;;;;;;18.70;52.04;100945.25;5042246;28;20045;-65
2023/07/03 05:50:44;;;;;;;22.20;5.80;;;;;;;18.75;52.17;100945.25;5043294;28;20109;-64
2023/07/03 05:53:12;;;;;;;20.58;4.88;;;;;;;18.79;51.50;100949.88;5043787;28;20041;-63
2023/07/03 05:55:43;;;;;;;16.75;4.60;;;;;;;18.76;51.86;100953.13;5037190;28;20053;-66
2023/07/03 05:58:11;;;;;;;15.65;4.60;;;;;;;18.73;51.78;100952.88;4693977;28;10000189;-67
2023/07/03 06:00:39;;;;;;;14.98;4.03;;;;;;;18.70;51.85;100951.50;5041748;28;20060;-63
2023/07/03 06:03:11;;;;;;;15.23;5.20;;;;;;;18.70;51.95;100953.41;5041205;28;20421;-63
2023/07/03 06:05:39;;;;;;;15.60;4.50;;;;;;;18.85;51.72;100946.03;5041883;28;20124;-62
2023/07/03 06:08:07;;;;;;;17.13;5.55;;;;;;;18.84;51.45;100949.88;5049686;28;20573;-62
2023/07/03 06:10:34;;;;;;;15.15;5.13;;;;;;;18.81;51.89;100950.41;5041930;28;20061;-63
2023/07/03 06:13:04;;;;;;;19.55;6.13;;;;;;;18.80;51.86;100956.13;5054261;28;20042;-63
2023/07/03 06:15:34;;;;;;;18.88;4.85;;;;;;;18.82;51.87;100953.94;4697305;28;10000634;-65
2023/07/03 06:18:03;;;;;;;18.75;5.55;;;;;;;18.80;51.79;100954.22;5045877;28;20060;-64
2023/07/03 06:20:31;;;;;;;13.95;4.57;;;;;;;18.80;51.69;100954.22;5047823;28;20068;-64
2023/07/03 06:22:59;;;;;;;20.50;5.25;;;;;;;18.79;51.88;100958.03;5041336;28;20045;-64
2023/07/03 06:25:27;;;;;;;19.30;5.18;;;;;;;18.78;51.87;100959.13;5047146;28;20045;-65
2023/07/03 06:27:54;;;;;;;20.50;5.13;;;;;;;18.78;52.12;100958.31;5047007;28;20049;-65
2023/07/03 06:30:24;;;;;;;16.13;5.00;;;;;;;18.78;52.14;100952.88;5043355;28;20107;-64
2023/07/03 06:32:51;;;;;;;12.00;4.43;;;;;;;18.79;52.17;100954.50;5047503;28;20132;-64
2023/07/03 06:35:19;;;;;;;19.08;5.72;;;;;;;18.77;51.92;100960.22;5047334;28;20107;-65
2023/07/03 06:37:47;;;;;;;16.45;4.72;;;;;;;18.77;52.09;100957.50;5045946;28;20120;-68
2023/07/03 06:40:15;;;;;;;17.77;4.82;;;;;;;18.80;51.92;100959.66;5046287;28;20143;-66
2023/07/03 06:42:44;;;;;;;20.27;5.30;;;;;;;18.78;51.87;100964.56;5047874;28;20049;-64
2023/07/03 06:45:12;;;;;;;15.63;4.78;;;;;;;18.87;51.71;100966.75;5047211;28;20053;-64
2023/07/03 06:47:41;;;;;;;15.23;4.80;;;;;;;19.04;52.16;100959.09;5044964;28;20049;-65
2023/07/03 06:50:10;;;;;;;14.05;5.10;;;;;;;19.04;51.83;100950.91;5046112;28;20049;-64
2023/07/03 06:52:38;;;;;;;15.25;4.95;;;;;;;18.95;51.67;100950.66;5046306;28;20107;-65
2023/07/03 06:55:06;;;;;;;16.38;5.30;;;;;;;18.88;51.63;100954.75;5044626;28;20061;-65
2023/07/03 06:57:34;;;;;;;12.45;4.60;;;;;;;18.85;51.74;100958.84;5043099;28;20105;-65
2023/07/03 07:00:05;;;;;;;13.25;4.45;;;;;;;18.82;52.07;100956.66;5047141;28;20333;-65
2023/07/03 07:02:33;;;;;;;14.45;5.05;;;;;;;18.81;51.79;100949.59;5048591;28;20064;-65
2023/07/03 07:05:02;;;;;;;18.42;4.72;;;;;;;18.90;52.77;100953.41;5046561;28;20571;-66
2023/07/03 07:07:31;;;;;;;16.55;4.15;;;;;;;18.86;51.61;100965.94;5046356;28;20078;-65
2023/07/03 07:09:58;;;;;;;15.45;5.15;;;;;;;18.80;51.67;100967.03;5046280;28;20065;-65
2023/07/03 07:12:26;;;;;;;11.63;4.00;;;;;;;18.80;51.91;100967.84;5047665;28;20104;-65
2023/07/03 07:14:54;;;;;;;18.10;4.75;;;;;;;18.79;51.70;100981.72;5043994;28;20344;-65
2023/07/03 07:17:22;;;;;;;16.05;3.75;;;;;;;18.85;51.86;100981.44;5044263;28;20049;-65
2023/07/03 07:19:59;;;;;;;13.00;4.25;;;;;;;18.85;51.79;100961.56;5046328;28;20061;-65
2023/07/03 07:22:29;;;;;;;13.70;4.95;;;;;;;18.84;51.68;100973.56;5043872;28;20045;-64
2023/07/03 07:24:56;;;;;;;17.90;4.65;;;;;;;18.82;51.94;100982.00;5050091;28;20049;-65
2023/07/03 07:27:24;;;;;;;15.30;3.90;;;;;;;18.82;51.70;100967.56;5043068;28;20053;-65
2023/07/03 07:29:52;;;;;;;12.38;4.15;;;;;;;18.89;52.01;100981.72;5043159;28;20296;-65
2023/07/03 07:32:21;;;;;;;14.50;4.47;;;;;;;18.83;51.61;100980.09;5044993;28;20049;-64
2023/07/03 07:34:49;;;;;;;15.45;4.75;;;;;;;18.83;51.69;100983.63;5044462;28;20068;-65
2023/07/03 07:37:17;;;;;;;16.33;4.13;;;;;;;18.84;51.55;100979.00;5045452;28;20072;-65
2023/07/03 07:39:46;;;;;;;18.58;4.53;;;;;;;18.83;51.51;100975.47;5035760;28;20053;-64
2023/07/03 07:42:14;;;;;;;18.40;4.95;;;;;;;18.84;51.51;100979.00;5046656;28;20054;-64
2023/07/03 07:44:41;;;;;;;14.73;4.95;;;;;;;18.89;51.62;100972.72;5043773;28;20045;-65
2023/07/03 07:47:10;;;;;;;15.07;4.63;;;;;;;18.88;51.40;100971.91;5039858;28;20057;-65
2023/07/03 07:49:39;;;;;;;16.55;3.92;;;;;;;18.88;51.34;100971.91;5045523;28;20049;-65
2023/07/03 07:52:08;;;;;;;15.98;4.15;;;;;;;19.01;51.24;100970.53;5050681;28;20488;-64
2023/07/03 07:54:36;;;;;;;14.20;3.97;;;;;;;18.94;50.83;100989.88;5045968;28;20111;-65
2023/07/03 07:57:05;;;;;;;15.55;4.22;;;;;;;18.96;50.98;100984.97;5047146;28;20490;-65
2023/07/03 07:59:34;;;;;;;11.13;3.95;;;;;;;18.93;50.85;100988.25;5046271;28;20057;-65
2023/07/03 08:02:02;;;;;;;11.00;3.35;;;;;;;18.91;50.85;100995.88;5045703;28;20069;-65
2023/07/03 08:04:30;;;;;;;13.80;3.78;;;;;;;18.90;50.87;100998.88;5044277;28;20045;-64
2023/07/03 08:07:00;;;;;;;17.48;5.47;;;;;;;18.93;51.00;100995.59;5042919;28;20077;-65
2023/07/03 08:09:28;;;;;;;15.68;4.07;;;;;;;18.92;50.84;100993.97;5044714;28;20068;-65
2023/07/03 08:11:56;;;;;;;15.05;3.83;;;;;;;18.94;50.69;101006.22;5050014;28;20048;-65
2023/07/03 08:14:25;;;;;;;16.48;3.55;;;;;;;18.91;50.58;100995.88;5046471;28;20052;-65
2023/07/03 08:16:53;;;;;;;16.38;5.40;;;;;;;18.91;50.55;101004.06;5038734;28;20049;-65
2023/07/03 08:19:21;;;;;;;16.95;3.90;;;;;;;18.88;50.27;100996.44;5045612;28;20053;-65
2023/07/03 08:21:48;;;;;;;13.80;4.07;;;;;;;18.91;50.31;101003.22;5045225;28;20053;-65
2023/07/03 08:24:17;;;;;;;13.63;4.07;;;;;;;18.94;50.52;101010.84;5043049;28;20041;-65
2023/07/03 08:26:49;;;;;;;10.70;3.60;;;;;;;18.94;50.40;101010.84;5040469;28;20049;-65
2023/07/03 08:29:16;;;;;;;13.55;3.55;;;;;;;18.94;50.48;101008.94;5045682;28;20053;-65
2023/07/03 08:31:46;;;;;;;16.95;4.07;;;;;;;18.94;50.18;101005.41;5045343;28;20136;-65
2023/07/03 08:34:14;;;;;;;15.57;4.50;;;;;;;18.90;50.32;101005.13;5043405;28;20050;-65
2023/07/03 08:36:43;;;;;;;15.60;4.28;;;;;;;18.98;50.31;101010.03;5041824;28;20136;-65
2023/07/03 08:39:14;;;;;;;15.95;4.63;;;;;;;18.97;49.78;101002.16;5053420;28;20060;-65
2023/07/03 08:41:51;;;;;;;16.23;4.65;;;;;;;18.97;49.84;101004.88;5050257;28;20077;-65
2023/07/03 08:44:19;;;;;;;12.10;3.88;;;;;;;19.05;49.37;101012.47;5045489;28;20063;-65
2023/07/03 08:46:49;;;;;;;15.93;4.53;;;;;;;19.00;49.66;101007.03;5048115;28;20076;-65
2023/07/03 08:49:40;;;;;;;18.20;4.90;;;;;;;19.02;49.69;101010.31;4759604;28;10000896;-65
2023/07/03 08:52:08;;;;;;;15.07;4.28;;;;;;;19.09;49.82;101003.47;5041338;28;20077;-65
2023/07/03 08:54:38;;;;;;;15.60;3.95;;;;;;;19.08;49.67;101020.06;5038978;28;20476;-64
2023/07/03 08:57:10;;;;;;;12.15;3.53;;;;;;;19.07;49.47;101011.09;5044118;28;20083;-65
2023/07/03 08:59:38;;;;;;;14.30;3.97;;;;;;;19.06;49.53;101009.50;5045100;28;20054;-65
2023/07/03 09:02:15;;;;;;;10.55;3.70;;;;;;;19.07;49.67;101013.81;5044634;28;20465;-65
2023/07/03 09:05:00;;;;;;;11.38;3.30;;;;;;;19.07;49.41;101005.63;5042884;28;20051;-65
2023/07/03 09:07:35;;;;;;;15.10;4.40;;;;;;;19.15;49.98;101009.72;5040915;28;20180;-64
2023/07/03 09:10:12;;;;;;;11.85;3.25;;;;;;;19.17;49.61;101018.44;5045078;28;20073;-65
2023/07/03 09:12:49;;;;;;;13.27;3.70;;;;;;;19.17;49.30;101010.25;5041685;28;20059;-65
2023/07/03 09:15:22;;;;;;;13.43;4.75;;;;;;;19.16;49.44;101005.91;5040696;28;20068;-65
2023/07/03 09:17:54;;;;;;;15.25;4.68;;;;;;;19.16;49.54;101012.16;5043440;28;20076;-64
2023/07/03 09:20:24;;;;;;;12.90;3.88;;;;;;;19.24;49.81;101009.97;5044913;28;20051;-64
2023/07/03 09:22:58;;;;;;;11.55;3.83;;;;;;;19.31;50.42;101008.59;5043510;28;20214;-64
2023/07/03 09:25:32;;;;;;;9.18;3.25;;;;;;;19.32;50.27;101009.41;5041819;28;20127;-63
2023/07/03 09:28:03;;;;;;;11.77;3.40;;;;;;;19.31;49.53;101010.50;5041743;28;20057;-65
2023/07/03 09:30:32;;;;;;;15.23;3.47;;;;;;;19.33;49.81;101005.59;5044515;28;20453;-65
2023/07/03 09:33:02;;;;;;;9.07;3.00;;;;;;;19.39;50.04;101004.50;5039582;28;20056;-64
2023/07/03 09:35:35;;;;;;;8.70;3.35;;;;;;;19.41;50.26;101008.56;5043805;28;20052;-63
2023/07/03 09:38:05;;;;;;;10.70;3.70;;;;;;;19.39;49.68;101007.22;5032109;28;20077;-64
2023/07/03 09:40:37;;;;;;;9.73;3.67;;;;;;;19.36;49.61;101000.41;5043739;28;20441;-64
2023/07/03 09:43:12;;;;;;;15.05;3.90;;;;;;;19.36;49.02;100996.88;5044218;28;20114;-64
2023/07/03 09:45:41;;;;;;;16.58;3.97;;;;;;;19.38;49.60;101009.13;5044107;28;20457;-64
2023/07/03 09:48:18;;;;;;;15.63;4.15;;;;;;;19.39;49.18;101020.84;5042334;28;20045;-64
2023/07/03 09:50:46;;;;;;;10.98;3.50;;;;;;;19.40;48.95;101026.03;5044113;28;20292;-64
2023/07/03 09:53:33;;;;;;;;;;;;;;;19.40;48.73;101017.03;5042858;28;20072;-63
2023/07/03 09:56:02;;;;;;;12.00;3.58;;;;;;;19.39;48.46;101016.22;5042376;28;19921;-64
2023/07/03 09:58:30;;;;;;;11.20;4.25;;;;;;;19.40;48.17;101008.84;5042762;28;20047;-63
2023/07/03 10:01:00;;;;;;;16.50;3.92;;;;;;;19.41;48.22;101007.75;5042927;28;20053;-64
2023/07/03 10:03:32;;;;;;;15.13;4.15;;;;;;;19.48;49.54;101000.91;5044063;28;20049;-63
2023/07/03 10:06:12;;;;;;;13.02;4.50;;;;;;;19.56;49.75;101006.94;5045065;28;20041;-64
2023/07/03 10:08:47;;;;;;;9.05;3.50;;;;;;;19.58;49.87;101021.91;5034931;28;20053;-63
2023/07/03 10:11:22;;;;;;;10.15;3.75;;;;;;;19.59;49.08;101015.38;5034245;28;20119;-63
2023/07/03 10:13:52;;;;;;;7.80;3.60;;;;;;;19.58;48.06;101023.81;5043413;28;20052;-63
2023/07/03 10:16:23;;;;;;;9.48;3.33;;;;;;;19.60;48.36;101024.38;5044139;28;20099;-64
2023/07/03 10:18:55;;;;;;;9.57;3.53;;;;;;;19.58;47.96;101021.91;5042332;28;20068;-63
2023/07/03 10:21:24;;;;;;;7.95;3.78;;;;;;;19.60;47.88;101022.44;5043612;28;20064;-63
2023/07/03 10:23:52;;;;;;;8.82;3.00;;;;;;;19.69;48.69;101025.44;4687511;28;10000598;-64
2023/07/03 10:26:23;;;;;;;10.48;3.38;;;;;;;19.72;47.51;101016.69;5040812;28;20057;-64
2023/07/03 10:28:58;;;;;;;9.18;3.67;;;;;;;19.75;48.11;101016.13;5041200;28;20076;-63
2023/07/03 10:31:33;;;;;;;9.88;3.38;;;;;;;19.85;48.05;101028.91;5042097;28;20060;-64
2023/07/03 10:34:07;;;;;;;13.23;3.78;;;;;;;19.81;47.88;101024.00;5041644;28;20045;-63
2023/07/03 10:36:36;;;;;;;13.73;3.70;;;;;;;19.81;47.17;101026.75;5041183;28;20081;-62
2023/07/03 10:39:10;;;;;;;7.82;3.55;;;;;;;19.80;47.33;101029.75;5037051;28;20049;-63
2023/07/03 10:41:44;;;;;;;7.80;2.90;;;;;;;19.89;47.67;101035.44;5042098;28;20049;-62
2023/07/03 10:44:17;;;;;;;11.35;2.92;;;;;;;19.89;47.43;101033.53;5039231;28;20049;-63
2023/07/03 10:46:50;;;;;;;8.80;3.58;;;;;;;19.89;47.25;101027.25;5041895;28;20049;-63
2023/07/03 10:49:25;;;;;;;11.45;3.47;;;;;;;19.90;47.26;101034.34;5039548;28;20045;-63
2023/07/03 10:52:03;;;;;;;10.55;3.22;;;;;;;19.91;46.69;101022.34;5042043;28;20049;-62
2023/07/03 10:54:37;;;;;;;12.02;3.30;;;;;;;19.91;46.63;101025.06;5035234;28;20430;-63
2023/07/03 10:57:07;;;;;;;11.48;3.40;;;;;;;19.92;46.16;101023.97;5039867;28;20049;-63
2023/07/03 10:59:40;;;;;;;15.93;3.63;;;;;;;19.98;46.72;101031.03;5036801;28;20071;-63
2023/07/03 11:02:21;;;;;;;9.38;2.78;;;;;;;19.97;46.20;101024.75;5045023;28;20399;-63
2023/07/03 11:04:58;;;;;;;7.38;3.00;;;;;;;19.98;45.61;101018.22;5041956;28;20069;-63
2023/07/03 11:07:33;;;;;;;10.30;3.22;;;;;;;19.97;45.46;101035.69;5048638;28;20117;-63
2023/07/03 11:10:09;;;;;;;7.70;2.92;;;;;;;19.96;44.92;101025.03;5044079;28;20067;-64
2023/07/03 11:12:45;;;;;;;7.03;2.80;;;;;;;19.89;45.11;101024.53;5045795;28;20104;-62
2023/07/03 11:15:23;;;;;;;9.77;3.03;;;;;;;19.95;45.03;101034.31;5044738;28;20053;-63
2023/07/03 11:18:01;;;;;;;15.82;4.05;;;;;;;20.03;45.53;101031.00;5037431;28;20049;-63
2023/07/03 11:20:40;;;;;;;12.50;3.38;;;;;;;20.01;44.84;101033.22;5041992;28;20050;-63
2023/07/03 11:23:16;;;;;;;12.18;3.78;;;;;;;20.03;44.86;101020.91;5040333;28;20108;-63
2023/07/03 11:25:53;;;;;;;9.57;3.88;;;;;;;20.06;44.79;101031.25;5044076;28;20053;-62
2023/07/03 11:28:32;;;;;;;14.80;3.53;;;;;;;20.21;45.14;101033.09;5043023;28;20056;-64